Time;durP1;ratioP1;P1;durP2;ratioP2;P2;SDS_P1;SDS_P2;PMS_P1;PMS_P2;Temp;Humidity;BMP_temperature;BMP_pressure;BME280_temperature;BME280_humidity;BME280_pressure;Samples;Min_cycle;Max_cycle;Signal;HPM_P1;HPM_P2
2022/10/13 00:01:12;;;;;;;18.20;9.82;;;;;;;13.74;80.17;100922.63;5016767;28;20781;-74
2022/10/13 00:03:39;;;;;;;19.47;10.00;;;;;;;13.71;80.45;100912.25;5026483;28;20451;-74
2022/10/13 00:06:07;;;;;;;13.77;9.82;;;;;;;13.71;80.24;100914.97;5024315;28;20391;-74
2022/10/13 00:08:33;;;;;;;12.32;9.48;;;;;;;13.66;79.80;100914.91;5021324;28;20837;-74
2022/10/13 00:10:59;;;;;;;11.95;9.52;;;;;;;13.60;79.88;100912.38;5024468;28;20393;-76
2022/10/13 00:13:25;;;;;;;15.80;9.98;;;;;;;13.59;79.84;100916.19;5027563;28;20391;-76
2022/10/13 00:15:50;;;;;;;15.85;10.27;;;;;;;13.58;79.95;100914.53;5013027;28;20912;-74
2022/10/13 00:18:15;;;;;;;14.70;9.90;;;;;;;13.56;80.08;100912.06;5019027;28;20411;-74
2022/10/13 00:20:44;;;;;;;15.97;9.73;;;;;;;13.53;80.06;100921.53;5023654;28;20424;-74
2022/10/13 00:23:09;;;;;;;13.60;9.30;;;;;;;13.51;80.05;100920.97;5026878;28;20392;-74
2022/10/13 00:25:39;;;;;;;15.10;9.35;;;;;;;13.49;79.91;100919.59;5027386;28;20399;-75
2022/10/13 00:28:05;;;;;;;14.30;9.27;;;;;;;13.46;79.90;100920.94;5024446;28;20415;-74
2022/10/13 00:30:33;;;;;;;12.87;9.90;;;;;;;13.46;80.06;100923.66;5013568;28;20924;-74
2022/10/13 00:32:58;;;;;;;11.32;9.52;;;;;;;13.45;79.93;100913.81;5024094;28;20395;-74
2022/10/13 00:35:24;;;;;;;18.30;10.07;;;;;;;13.43;79.68;100912.44;5006988;28;20395;-76
2022/10/13 00:37:49;;;;;;;10.47;9.43;;;;;;;13.42;80.00;100918.94;5022031;28;20430;-76
2022/10/13 00:40:17;;;;;;;17.20;9.47;;;;;;;13.43;79.86;100917.88;5023703;28;20895;-76
2022/10/13 00:42:42;;;;;;;15.23;9.65;;;;;;;13.38;79.65;100915.91;5026119;28;20864;-75
2022/10/13 00:45:23;;;;;;;14.20;9.52;;;;;;;13.38;79.65;100918.63;5027076;28;20445;-76
2022/10/13 00:48:00;;;;;;;12.27;9.55;;;;;;;13.38;79.63;100917.81;5017071;28;20419;-76
2022/10/13 00:50:35;;;;;;;12.30;8.68;;;;;;;13.40;79.50;100910.22;5024777;28;20952;-76
2022/10/13 00:53:01;;;;;;;16.50;9.97;;;;;;;13.42;79.53;100914.34;5026939;28;20387;-76
2022/10/13 00:55:30;;;;;;;12.57;10.03;;;;;;;13.45;79.69;100910.28;5026957;28;20773;-76
2022/10/13 00:57:59;;;;;;;15.88;9.27;;;;;;;13.47;79.43;100908.13;5020545;28;20949;-76
2022/10/13 01:00:25;;;;;;;14.75;9.93;;;;;;;13.46;79.42;100910.03;5022241;28;20416;-76
2022/10/13 01:02:50;;;;;;;15.93;9.55;;;;;;;13.47;79.50;100910.84;5026770;28;20391;-76
2022/10/13 01:05:18;;;;;;;14.43;9.80;;;;;;;13.44;79.66;100905.91;5027034;28;20387;-76
2022/10/13 01:07:47;;;;;;;14.82;9.75;;;;;;;13.44;79.62;100911.34;4999098;28;20418;-76
2022/10/13 01:10:22;;;;;;;14.50;9.50;;;;;;;13.43;79.65;100899.66;5023524;28;20425;-74
2022/10/13 01:12:58;;;;;;;13.60;9.00;;;;;;;13.43;79.51;100896.09;5026856;28;20437;-76
2022/10/13 01:15:40;;;;;;;12.27;8.40;;;;;;;13.43;79.70;100898.84;5025300;28;20402;-76
2022/10/13 01:18:32;;;;;;;16.25;8.68;;;;;;;13.44;79.77;100895.84;5010751;28;20476;-76
2022/10/13 01:21:14;;;;;;;16.08;9.02;;;;;;;13.45;79.39;100905.66;5025119;28;20423;-76
2022/10/13 01:24:02;;;;;;;10.05;8.35;;;;;;;13.47;79.56;100900.78;5019121;28;20463;-76
2022/10/13 01:26:55;;;;;;;11.60;8.83;;;;;;;13.51;79.44;100898.38;5009954;28;20403;-76
2022/10/13 01:29:46;;;;;;;16.02;9.20;;;;;;;13.51;79.68;100893.75;5007749;28;20418;-76
2022/10/13 01:32:14;;;;;;;10.90;8.15;;;;;;;13.47;79.86;100900.78;5007105;28;20395;-76
2022/10/13 01:34:54;;;;;;;10.90;8.50;;;;;;;13.46;80.42;100898.31;5021242;28;20906;-76
2022/10/13 01:37:32;;;;;;;15.98;9.27;;;;;;;13.46;80.26;100890.16;5000478;28;20424;-76
2022/10/13 01:40:14;;;;;;;13.15;8.48;;;;;;;13.48;79.79;100901.59;5009502;28;20519;-76
2022/10/13 01:42:53;;;;;;;16.15;9.10;;;;;;;13.52;79.78;100900.03;5028328;28;20502;-76
2022/10/13 01:45:22;;;;;;;9.57;8.30;;;;;;;13.49;79.93;100895.91;5022958;28;20795;-76
2022/10/13 01:47:49;;;;;;;11.23;8.75;;;;;;;13.51;79.57;100896.47;5009451;28;20403;-76
2022/10/13 01:50:17;;;;;;;11.38;9.07;;;;;;;13.53;80.17;100894.31;5030188;28;20390;-76
2022/10/13 01:52:42;;;;;;;9.63;8.55;;;;;;;13.56;79.82;100892.19;5029130;28;20395;-76
2022/10/13 01:55:11;;;;;;;12.52;9.00;;;;;;;13.57;79.92;100888.38;5026388;28;20467;-76
2022/10/13 01:57:41;;;;;;;13.60;8.57;;;;;;;13.59;79.64;100906.09;5009061;28;20842;-76
2022/10/13 02:00:16;;;;;;;13.20;8.88;;;;;;;13.58;79.60;100900.91;5016038;28;20413;-76
2022/10/13 02:03:02;;;;;;;9.00;7.70;;;;;;;13.59;79.56;100894.38;5027707;28;20397;-76
2022/10/13 02:05:55;;;;;;;10.70;7.80;;;;;;;13.58;79.02;100903.63;5007832;28;20388;-76
2022/10/13 02:08:31;;;;;;;8.32;7.53;;;;;;;13.52;78.99;100900.03;5011261;28;20593;-76
2022/10/13 02:11:18;;;;;;;12.18;7.57;;;;;;;13.49;78.92;100895.91;5024685;28;21002;-76
2022/10/13 02:13:49;;;;;;;13.23;7.80;;;;;;;13.46;78.68;100893.69;5029168;28;20411;-76
2022/10/13 02:16:16;;;;;;;13.55;8.57;;;;;;;13.45;78.61;100893.94;5022151;28;20409;-75
2022/10/13 02:18:42;;;;;;;11.23;8.65;;;;;;;13.44;79.02;100895.84;5025796;28;20492;-75
2022/10/13 02:21:08;;;;;;;17.13;9.25;;;;;;;13.42;78.76;100887.13;5029169;28;20399;-75
2022/10/13 02:23:34;;;;;;;14.30;8.80;;;;;;;13.41;79.44;100890.06;5029509;28;20387;-75
2022/10/13 02:25:59;;;;;;;12.48;8.95;;;;;;;13.41;79.31;100890.06;5020052;28;20405;-76
2022/10/13 02:28:26;;;;;;;18.43;9.60;;;;;;;13.41;79.16;100880.00;5021275;28;20814;-76
2022/10/13 02:30:51;;;;;;;17.35;10.30;;;;;;;13.41;78.92;100881.91;5028277;28;20385;-76
2022/10/13 02:33:17;;;;;;;24.87;10.27;;;;;;;13.39;79.01;100884.06;5029408;28;20866;-76
2022/10/13 02:35:43;;;;;;;26.52;10.75;;;;;;;13.37;79.04;100884.31;5019388;28;20813;-76
2022/10/13 02:38:09;;;;;;;21.40;9.30;;;;;;;13.36;79.15;100877.25;5024538;28;20470;-76
2022/10/13 02:40:35;;;;;;;16.13;9.15;;;;;;;13.35;78.83;100880.19;5025180;28;21016;-76
2022/10/13 02:43:00;;;;;;;11.90;8.70;;;;;;;13.33;78.96;100883.19;5029294;28;20481;-76
2022/10/13 02:45:26;;;;;;;17.77;9.07;;;;;;;13.31;79.19;100884.50;5019165;28;20409;-76
2022/10/13 02:47:51;;;;;;;16.70;9.03;;;;;;;13.30;79.02;100877.44;5005562;28;20410;-76
2022/10/13 02:50:16;;;;;;;12.50;9.07;;;;;;;13.29;78.82;100882.03;5022214;28;20468;-76
2022/10/13 02:52:42;;;;;;;13.93;8.15;;;;;;;13.29;79.37;100871.16;5029079;28;20445;-76
2022/10/13 02:55:07;;;;;;;13.90;8.17;;;;;;;13.32;79.16;100884.25;5025695;28;20387;-75
2022/10/13 02:57:33;;;;;;;16.13;8.75;;;;;;;13.37;79.08;100872.63;5019060;28;20426;-76
2022/10/13 02:59:58;;;;;;;11.87;8.10;;;;;;;13.38;79.42;100863.34;5025226;28;20400;-75
2022/10/13 03:02:25;;;;;;;10.18;7.80;;;;;;;13.40;79.17;100858.50;5025963;28;20412;-76
2022/10/13 03:04:50;;;;;;;11.20;8.80;;;;;;;13.40;79.38;100862.03;5028834;28;20419;-76
2022/10/13 03:07:16;;;;;;;12.63;8.33;;;;;;;13.38;79.40;100861.47;5001042;28;20465;-74
2022/10/13 03:09:41;;;;;;;10.77;8.23;;;;;;;13.35;79.53;100855.69;5024473;28;20438;-76
2022/10/13 03:12:06;;;;;;;11.83;7.80;;;;;;;13.32;79.56;100867.09;5027061;28;20401;-75
2022/10/13 03:14:32;;;;;;;11.13;7.87;;;;;;;13.24;79.86;100865.63;5028711;28;20406;-76
2022/10/13 03:16:57;;;;;;;10.47;8.00;;;;;;;13.25;80.12;100867.28;5020739;28;20428;-76
2022/10/13 03:19:22;;;;;;;16.23;8.90;;;;;;;13.29;79.75;100864.88;5009009;28;20415;-76
2022/10/13 03:21:48;;;;;;;15.73;8.68;;;;;;;13.31;79.79;100869.00;5017302;28;20405;-76
2022/10/13 03:24:13;;;;;;;10.67;8.80;;;;;;;13.34;79.80;100867.66;5028362;28;20478;-76
2022/10/13 03:26:38;;;;;;;11.93;8.43;;;;;;;13.35;79.81;100864.69;5019311;28;20419;-76
2022/10/13 03:29:03;;;;;;;11.10;8.80;;;;;;;13.32;79.97;100857.03;5020067;28;20516;-76
2022/10/13 03:31:29;;;;;;;13.50;8.60;;;;;;;13.34;79.89;100854.03;5023798;28;20401;-75
2022/10/13 03:33:54;;;;;;;13.57;8.13;;;;;;;13.39;79.77;100851.41;5028033;28;20387;-76
2022/10/13 03:36:20;;;;;;;12.97;8.40;;;;;;;13.42;79.64;100853.63;5026428;28;20778;-76
2022/10/13 03:38:45;;;;;;;15.30;8.33;;;;;;;13.42;79.74;100849.00;5017027;28;20419;-75
2022/10/13 03:41:13;;;;;;;11.77;8.75;;;;;;;13.42;79.88;100850.88;5024650;28;20397;-75
2022/10/13 03:43:39;;;;;;;11.30;8.00;;;;;;;13.43;79.65;100852.56;5027020;28;20393;-76
2022/10/13 03:46:06;;;;;;;10.32;8.45;;;;;;;13.41;79.91;100849.25;5014917;28;20953;-75
2022/10/13 03:48:33;;;;;;;9.65;7.88;;;;;;;13.42;79.86;100856.34;5019012;28;20395;-76
2022/10/13 03:50:59;;;;;;;8.75;7.88;;;;;;;13.43;80.18;100847.94;5024775;28;20400;-76
2022/10/13 03:53:25;;;;;;;10.60;8.50;;;;;;;13.44;80.16;100857.72;4999337;28;20407;-76
2022/10/13 03:55:52;;;;;;;12.40;8.55;;;;;;;13.44;80.34;100863.16;5020994;28;20416;-75
2022/10/13 03:58:18;;;;;;;17.00;8.43;;;;;;;13.44;80.08;100863.16;5017073;28;20477;-75
2022/10/13 04:00:44;;;;;;;14.23;8.13;;;;;;;13.46;79.96;100863.75;5025416;28;20882;-75
2022/10/13 04:03:09;;;;;;;10.93;8.18;;;;;;;13.42;79.98;100865.34;5007956;28;20893;-76
2022/10/13 04:05:35;;;;;;;9.52;8.05;;;;;;;13.44;79.79;100865.88;5027754;28;20399;-76
2022/10/13 04:08:00;;;;;;;11.73;7.80;;;;;;;13.43;80.11;100868.88;5014917;28;20457;-76
2022/10/13 04:10:26;;;;;;;12.95;8.05;;;;;;;13.43;79.70;100863.44;5007100;28;20757;-76
2022/10/13 04:12:51;;;;;;;9.87;7.23;;;;;;;13.40;79.65;100867.47;5005749;28;20409;-76
2022/10/13 04:15:16;;;;;;;10.57;8.20;;;;;;;13.39;79.71;100852.22;5027385;28;20399;-76
2022/10/13 04:17:42;;;;;;;14.30;8.07;;;;;;;13.40;79.50;100853.06;5023425;28;20437;-76
2022/10/13 04:20:07;;;;;;;10.70;7.80;;;;;;;13.38;79.56;100852.47;5010054;28;20400;-76
2022/10/13 04:22:33;;;;;;;13.50;8.20;;;;;;;13.41;79.75;100841.06;5003323;28;20407;-75
2022/10/13 04:24:58;;;;;;;14.10;8.27;;;;;;;13.39;79.88;100845.97;5012199;28;20403;-75
2022/10/13 04:27:25;;;;;;;12.93;7.97;;;;;;;13.38;79.66;100847.03;5026817;28;20399;-75
2022/10/13 04:29:50;;;;;;;16.07;9.37;;;;;;;13.32;79.75;100851.59;5013175;28;20834;-76
2022/10/13 04:32:16;;;;;;;25.47;11.30;;;;;;;13.27;80.25;100846.06;5021519;28;20409;-76
2022/10/13 04:34:41;;;;;;;16.27;9.70;;;;;;;13.30;80.36;100858.38;5025385;28;20535;-75
2022/10/13 04:37:06;;;;;;;21.87;11.07;;;;;;;13.24;80.35;100860.19;5015572;28;20419;-76
2022/10/13 04:39:32;;;;;;;26.03;12.17;;;;;;;13.11;81.19;100862.44;5018750;28;20422;-75
2022/10/13 04:41:57;;;;;;;25.47;12.03;;;;;;;13.07;81.45;100862.13;5011989;28;20487;-75
2022/10/13 04:44:23;;;;;;;26.77;11.70;;;;;;;13.08;81.57;100862.91;5024174;28;20392;-75
2022/10/13 04:46:48;;;;;;;21.55;12.68;;;;;;;13.12;81.49;100864.09;5018546;28;20403;-76
2022/10/13 04:49:15;;;;;;;22.90;11.90;;;;;;;13.11;81.53;100857.00;5022300;28;20421;-76
2022/10/13 04:51:40;;;;;;;24.83;12.13;;;;;;;13.13;81.49;100852.16;5003103;28;20402;-75
2022/10/13 04:54:06;;;;;;;19.53;11.77;;;;;;;13.15;81.52;100856.25;5002338;28;20785;-75
2022/10/13 04:56:31;;;;;;;20.67;11.88;;;;;;;13.15;81.21;100850.81;5010461;28;20441;-76
2022/10/13 04:58:57;;;;;;;19.40;12.30;;;;;;;13.12;81.36;100847.78;5016134;28;20473;-75
2022/10/13 05:01:24;;;;;;;22.13;12.90;;;;;;;13.13;81.56;100852.97;5014092;28;20429;-76
2022/10/13 05:03:51;;;;;;;22.77;11.93;;;;;;;13.15;81.17;100850.81;5021243;28;20409;-75
2022/10/13 05:06:19;;;;;;;24.07;11.77;;;;;;;13.15;81.42;100850.81;5017040;28;20423;-76
2022/10/13 05:08:44;;;;;;;19.27;11.63;;;;;;;13.20;81.15;100841.91;5011550;28;20429;-76
2022/10/13 05:11:10;;;;;;;18.77;11.80;;;;;;;13.21;81.36;100841.66;5019789;28;20442;-76
2022/10/13 05:13:35;;;;;;;22.38;10.75;;;;;;;13.23;81.09;100838.69;5021318;28;20446;-76
2022/10/13 05:16:12;;;;;;;18.80;10.50;;;;;;;13.19;80.91;100826.66;5013111;28;20428;-75
2022/10/13 05:18:37;;;;;;;22.48;10.38;;;;;;;13.17;80.83;100810.56;5013405;28;20938;-76
2022/10/13 05:21:13;;;;;;;22.67;10.40;;;;;;;13.13;80.57;100797.72;5013962;28;20452;-77
2022/10/13 05:23:39;;;;;;;11.83;7.77;;;;;;;13.10;80.88;100793.63;5009741;28;20756;-75
2022/10/13 05:26:07;;;;;;;12.82;7.97;;;;;;;13.06;80.92;100787.00;5014351;28;20420;-77
2022/10/13 05:28:33;;;;;;;11.20;7.85;;;;;;;13.06;80.56;100784.28;5005954;28;20797;-81
2022/10/13 05:31:14;;;;;;;11.27;7.53;;;;;;;13.02;80.49;100792.13;5003788;28;20480;-77
2022/10/13 05:33:39;;;;;;;15.65;7.68;;;;;;;13.01;80.36;100784.22;5010220;28;20417;-77
2022/10/13 05:36:07;;;;;;;11.07;7.40;;;;;;;13.00;80.47;100782.59;5004954;28;20418;-76
2022/10/13 05:38:32;;;;;;;10.60;7.75;;;;;;;13.01;80.39;100781.47;4997017;28;20460;-76
2022/10/13 05:41:02;;;;;;;14.02;7.85;;;;;;;13.03;80.05;100773.91;5014465;28;20440;-76
2022/10/13 05:43:30;;;;;;;13.95;7.63;;;;;;;13.01;80.03;100785.03;5017026;28;20465;-77
2022/10/13 05:45:55;;;;;;;13.23;7.07;;;;;;;13.01;79.93;100795.91;5014924;28;20413;-77
2022/10/13 05:48:20;;;;;;;9.82;7.25;;;;;;;13.02;79.98;100794.03;5014445;28;20387;-78
2022/10/13 05:50:46;;;;;;;13.90;7.73;;;;;;;13.00;80.25;100801.63;5012902;28;20412;-76
2022/10/13 05:53:11;;;;;;;11.20;7.93;;;;;;;13.01;79.96;100801.34;5025071;28;20459;-76
2022/10/13 05:55:37;;;;;;;10.33;7.33;;;;;;;13.05;79.67;100792.69;5015210;28;20399;-76
2022/10/13 05:58:03;;;;;;;10.73;7.65;;;;;;;13.07;79.46;100793.28;5030029;28;20786;-75
2022/10/13 06:00:28;;;;;;;12.25;8.20;;;;;;;13.06;79.52;100800.59;5012187;28;20414;-76
2022/10/13 06:03:02;;;;;;;12.40;7.97;;;;;;;13.05;79.53;100804.41;5022063;28;20395;-76
2022/10/13 06:05:30;;;;;;;10.13;7.18;;;;;;;13.08;79.78;100803.06;5009012;28;20449;-75
2022/10/13 06:07:56;;;;;;;18.30;8.07;;;;;;;13.13;79.88;100800.44;5027481;28;20439;-76
2022/10/13 06:10:22;;;;;;;19.05;7.65;;;;;;;13.15;80.03;100801.84;5016038;28;20894;-76
2022/10/13 06:12:47;;;;;;;14.32;8.40;;;;;;;13.17;79.92;100802.41;5026083;28;20476;-75
2022/10/13 06:15:13;;;;;;;13.70;8.73;;;;;;;13.11;80.07;100805.31;5009577;28;20396;-75
2022/10/13 06:17:38;;;;;;;14.30;9.17;;;;;;;13.07;80.47;100799.53;5008239;28;20496;-76
2022/10/13 06:20:06;;;;;;;14.17;9.13;;;;;;;13.09;80.27;100799.31;5008512;28;20458;-76
2022/10/13 06:22:37;;;;;;;14.05;9.77;;;;;;;13.12;80.49;100802.34;5007449;28;20404;-75
2022/10/13 06:25:05;;;;;;;11.68;10.05;;;;;;;13.14;80.28;100807.56;5006979;28;20412;-75
2022/10/13 06:27:31;;;;;;;15.10;9.45;;;;;;;13.05;80.83;100801.69;5008266;28;20408;-74
2022/10/13 06:29:56;;;;;;;17.98;10.45;;;;;;;13.09;80.77;100810.19;5005565;28;20413;-75
2022/10/13 06:32:22;;;;;;;19.83;10.43;;;;;;;13.15;80.71;100801.00;5008268;28;20416;-75
2022/10/13 06:34:47;;;;;;;16.30;10.20;;;;;;;13.18;80.68;100800.50;5028797;28;20423;-75
2022/10/13 06:37:12;;;;;;;17.27;10.45;;;;;;;13.25;80.36;100814.75;5017326;28;20406;-77
2022/10/13 06:39:38;;;;;;;15.47;10.40;;;;;;;13.26;80.53;100817.22;5012558;28;20423;-74
2022/10/13 06:42:03;;;;;;;17.83;11.97;;;;;;;13.27;80.47;100827.00;5011918;28;20466;-75
2022/10/13 06:44:32;;;;;;;16.80;11.43;;;;;;;13.30;80.52;100809.38;5027404;28;20385;-75
2022/10/13 06:46:58;;;;;;;18.15;11.93;;;;;;;13.33;80.33;100817.88;5026872;28;20391;-75
2022/10/13 06:49:23;;;;;;;14.82;10.90;;;;;;;13.38;79.98;100814.34;5013794;28;20768;-75
2022/10/13 06:51:49;;;;;;;16.07;11.57;;;;;;;13.40;80.18;100831.28;5019454;28;20403;-75
2022/10/13 06:54:14;;;;;;;16.60;11.80;;;;;;;13.37;80.51;100820.91;5026251;28;20408;-75
2022/10/13 06:56:40;;;;;;;17.20;12.00;;;;;;;13.41;80.29;100816.56;5029063;28;20403;-75
2022/10/13 06:59:05;;;;;;;16.70;12.80;;;;;;;13.50;80.11;100804.16;5018624;28;20952;-75
2022/10/13 07:01:31;;;;;;;21.27;12.57;;;;;;;13.57;79.99;100798.53;5027415;28;20400;-75
2022/10/13 07:03:56;;;;;;;21.67;12.37;;;;;;;13.56;79.72;100794.97;5024032;28;20404;-75
2022/10/13 07:06:21;;;;;;;17.80;11.80;;;;;;;13.61;80.12;100799.63;5028648;28;20498;-75
2022/10/13 07:08:47;;;;;;;16.42;11.77;;;;;;;13.62;79.78;100804.84;5020978;28;20423;-75
2022/10/13 07:11:14;;;;;;;13.07;10.50;;;;;;;13.66;79.83;100813.31;5028552;28;20410;-75
2022/10/13 07:13:41;;;;;;;16.75;11.38;;;;;;;13.65;79.64;100817.13;5024824;28;20397;-75
2022/10/13 07:16:07;;;;;;;17.65;11.35;;;;;;;13.59;80.07;100818.13;5028071;28;20406;-75
2022/10/13 07:18:33;;;;;;;14.18;11.40;;;;;;;13.61;80.24;100818.69;5024673;28;20419;-75
2022/10/13 07:20:59;;;;;;;13.97;11.20;;;;;;;13.64;80.35;100824.44;5019584;28;20767;-75
2022/10/13 07:23:24;;;;;;;15.80;11.50;;;;;;;13.73;80.02;100817.47;5011698;28;20409;-75
2022/10/13 07:25:50;;;;;;;17.57;11.70;;;;;;;13.72;79.89;100817.75;5010714;28;20407;-75
2022/10/13 07:28:15;;;;;;;18.48;11.75;;;;;;;13.70;80.17;100817.19;5015778;28;20817;-75
2022/10/13 07:30:41;;;;;;;19.60;12.20;;;;;;;13.80;79.95;100809.09;5026224;28;20392;-75
2022/10/13 07:33:06;;;;;;;18.47;13.27;;;;;;;13.79;79.54;100800.13;5022295;28;20414;-74
2022/10/13 07:35:31;;;;;;;23.00;13.27;;;;;;;13.73;80.17;100797.59;5025738;28;20389;-75
2022/10/13 07:37:57;;;;;;;18.13;12.30;;;;;;;13.81;80.02;100797.13;5018717;28;20880;-75
2022/10/13 07:40:23;;;;;;;16.87;12.40;;;;;;;13.95;79.80;100806.53;5024671;28;20402;-75
2022/10/13 07:42:48;;;;;;;18.10;13.45;;;;;;;14.04;79.33;100807.69;5013274;28;20417;-75
2022/10/13 07:45:15;;;;;;;21.23;13.80;;;;;;;14.10;79.35;100803.09;5013841;28;20413;-75
2022/10/13 07:47:40;;;;;;;17.60;11.90;;;;;;;14.17;79.07;100800.97;5023664;28;20433;-75
2022/10/13 07:50:06;;;;;;;14.97;11.30;;;;;;;14.22;78.86;100801.88;5028038;28;20599;-75
2022/10/13 07:52:34;;;;;;;20.52;11.82;;;;;;;14.23;79.06;100799.94;5012638;28;20408;-76
2022/10/13 07:55:00;;;;;;;16.08;12.23;;;;;;;14.26;78.82;100794.00;5020262;28;20443;-74
2022/10/13 07:57:26;;;;;;;22.73;12.43;;;;;;;14.27;79.26;100793.72;5016889;28;20418;-75
2022/10/13 07:59:51;;;;;;;18.92;11.38;;;;;;;14.26;78.78;100789.34;5027913;28;20406;-75
2022/10/13 08:02:17;;;;;;;20.37;12.60;;;;;;;14.23;79.44;100800.75;5017558;28;20500;-75
2022/10/13 08:04:42;;;;;;;16.67;11.27;;;;;;;14.27;79.40;100801.06;5014008;28;20870;-74
2022/10/13 08:07:08;;;;;;;19.30;11.23;;;;;;;14.30;79.02;100801.38;5014740;28;20416;-74
2022/10/13 08:09:33;;;;;;;17.67;11.75;;;;;;;14.29;79.06;100801.66;5012777;28;20435;-74
2022/10/13 08:11:59;;;;;;;16.23;11.32;;;;;;;14.25;79.22;100801.34;5011013;28;20405;-75
2022/10/13 08:14:24;;;;;;;15.90;11.03;;;;;;;14.26;79.43;100800.22;5018016;28;20462;-75
2022/10/13 08:16:49;;;;;;;16.63;12.37;;;;;;;14.32;78.96;100795.66;5024823;28;20412;-74
2022/10/13 08:19:16;;;;;;;16.47;11.80;;;;;;;14.30;79.53;100801.38;5027326;28;20421;-75
2022/10/13 08:21:42;;;;;;;17.57;11.97;;;;;;;14.33;79.30;100806.31;5014302;28;20459;-75
2022/10/13 08:24:12;;;;;;;17.37;12.57;;;;;;;14.31;79.46;100804.91;5010672;28;20440;-74
2022/10/13 08:26:38;;;;;;;21.73;12.35;;;;;;;14.27;79.95;100799.16;5004636;28;21252;-75
2022/10/13 08:29:04;;;;;;;19.02;12.15;;;;;;;14.31;79.89;100799.47;5004395;28;20412;-75
2022/10/13 08:31:29;;;;;;;20.50;12.50;;;;;;;14.39;79.95;100799.03;5017804;28;20397;-75
2022/10/13 08:33:54;;;;;;;23.77;13.37;;;;;;;14.52;78.99;100806.75;5000082;28;20483;-75
2022/10/13 08:36:20;;;;;;;20.10;14.30;;;;;;;14.62;79.32;100806.78;5005119;28;20413;-75
2022/10/13 08:38:45;;;;;;;22.17;14.23;;;;;;;14.70;78.92;100800.03;5004425;28;20445;-75
2022/10/13 08:41:15;;;;;;;18.60;14.87;;;;;;;14.82;78.83;100800.66;5006873;28;20771;-75
2022/10/13 08:43:46;;;;;;;24.02;13.27;;;;;;;14.85;78.67;100802.88;5000080;28;20898;-74
2022/10/13 08:46:17;;;;;;;24.80;14.82;;;;;;;14.87;78.10;100798.78;5004204;28;20404;-75
2022/10/13 08:48:43;;;;;;;22.05;13.80;;;;;;;14.89;78.11;100801.22;5004442;28;20413;-75
2022/10/13 08:51:13;;;;;;;20.33;14.18;;;;;;;14.82;78.21;100798.72;5002139;28;20414;-75
2022/10/13 08:53:44;;;;;;;22.52;13.88;;;;;;;14.79;77.90;100791.09;5000491;28;20420;-75
2022/10/13 08:56:17;;;;;;;22.80;14.15;;;;;;;14.73;78.49;100796.78;5004035;28;20419;-75
2022/10/13 08:58:43;;;;;;;18.25;13.75;;;;;;;14.73;78.28;100799.50;5004474;28;20416;-74
2022/10/13 09:01:24;;;;;;;19.00;13.60;;;;;;;14.71;78.28;100802.50;5004627;28;20397;-75
2022/10/13 09:04:38;;;;;;;23.15;14.30;;;;;;;14.73;78.33;100802.22;4999915;28;20904;-75
2022/10/13 09:07:14;;;;;;;21.67;14.20;;;;;;;14.78;78.22;100792.19;5005470;28;20456;-75
2022/10/13 09:09:40;;;;;;;26.15;15.18;;;;;;;14.83;78.12;100807.75;5002531;28;20428;-75
2022/10/13 09:12:06;;;;;;;28.27;14.37;;;;;;;14.82;78.41;100804.19;5002545;28;20463;-75
2022/10/13 09:14:35;;;;;;;23.13;14.18;;;;;;;14.84;78.50;100809.41;5003083;28;20409;-74
2022/10/13 09:17:28;;;;;;;25.73;16.02;;;;;;;14.88;78.02;100803.16;5003561;28;20405;-75
2022/10/13 09:20:04;;;;;;;22.42;15.32;;;;;;;14.96;77.94;100802.63;5002012;28;20413;-75
2022/10/13 09:22:36;;;;;;;24.63;15.30;;;;;;;15.07;77.69;100801.63;5002192;28;20431;-75
2022/10/13 09:25:10;;;;;;;20.25;14.80;;;;;;;15.07;77.65;100795.31;5003407;28;20410;-75
2022/10/13 09:27:57;;;;;;;21.13;14.80;;;;;;;15.10;77.73;100793.97;5007842;28;20429;-75
2022/10/13 09:30:35;;;;;;;24.83;15.13;;;;;;;15.07;77.83;100801.63;5005696;28;20828;-75
2022/10/13 09:33:14;;;;;;;22.73;15.82;;;;;;;15.16;77.34;100788.25;4999351;28;21041;-75
2022/10/13 09:35:46;;;;;;;21.08;15.18;;;;;;;15.27;77.20;100783.66;5000507;28;20420;-76
2022/10/13 09:38:21;;;;;;;26.20;15.13;;;;;;;15.42;76.55;100786.44;5004914;28;20420;-75
2022/10/13 09:41:07;;;;;;;30.77;15.85;;;;;;;15.62;76.03;100775.59;5003139;28;20447;-75
2022/10/13 09:43:34;;;;;;;26.10;15.00;;;;;;;15.75;75.57;100780.53;5003456;28;20468;-75
2022/10/13 09:46:03;;;;;;;24.10;15.90;;;;;;;15.70;75.89;100787.91;5017892;28;20444;-75
2022/10/13 09:48:35;;;;;;;24.30;15.68;;;;;;;15.63;76.24;100787.34;5004692;28;20488;-75
2022/10/13 09:51:01;;;;;;;23.27;15.68;;;;;;;15.63;76.12;100788.16;5003341;28;20447;-75
2022/10/13 09:53:38;;;;;;;21.77;15.07;;;;;;;15.70;75.73;100783.28;5012620;28;20457;-75
2022/10/13 09:56:25;;;;;;;23.70;15.93;;;;;;;16.03;75.59;100785.50;5020663;28;20401;-75
2022/10/13 09:58:58;;;;;;;24.90;16.50;;;;;;;16.53;73.88;100783.81;5007130;28;20471;-75
2022/10/13 10:01:29;;;;;;;29.52;15.88;;;;;;;16.52;73.43;100795.84;5006973;28;20474;-74
2022/10/13 10:03:56;;;;;;;21.05;16.33;;;;;;;16.44;73.51;100782.72;5008953;28;20880;-75
2022/10/13 10:06:22;;;;;;;27.88;15.32;;;;;;;16.32;73.58;100785.75;5008216;28;20466;-75
2022/10/13 10:09:02;;;;;;;27.33;16.20;;;;;;;16.19;74.21;100774.53;5007776;28;21034;-75
2022/10/13 10:11:33;;;;;;;32.13;17.47;;;;;;;16.07;74.76;100788.47;5008603;28;20474;-75
2022/10/13 10:14:11;;;;;;;24.67;17.08;;;;;;;16.06;75.23;100779.47;5011796;28;20445;-74
2022/10/13 10:16:48;;;;;;;21.25;15.93;;;;;;;16.19;75.11;100780.84;5007629;28;20393;-75
2022/10/13 10:19:21;;;;;;;24.95;17.15;;;;;;;16.60;74.19;100785.19;5011202;28;20517;-75
2022/10/13 10:22:29;;;;;;;22.85;16.38;;;;;;;17.00;72.78;100773.31;5019621;28;20395;-75
2022/10/13 10:24:58;;;;;;;24.52;16.20;;;;;;;17.30;71.12;100775.09;5028512;28;20398;-75
2022/10/13 10:27:30;;;;;;;24.15;16.10;;;;;;;17.00;72.13;100778.78;5028116;28;20898;-75
2022/10/13 10:30:13;;;;;;;25.20;16.48;;;;;;;16.80;72.78;100778.03;5021247;28;20412;-75
2022/10/13 10:32:53;;;;;;;24.13;17.05;;;;;;;16.65;73.20;100775.34;5010207;28;20873;-74
2022/10/13 10:35:47;;;;;;;27.40;16.48;;;;;;;16.60;73.50;100770.69;5029388;28;20763;-74
2022/10/13 10:38:12;;;;;;;22.70;16.43;;;;;;;16.58;73.63;100770.16;5021221;28;20412;-74
2022/10/13 10:41:02;;;;;;;23.93;16.23;;;;;;;16.48;73.77;100776.44;5024365;28;20908;-75
2022/10/13 10:43:56;;;;;;;27.17;17.50;;;;;;;16.43;74.19;100770.16;5021580;28;20521;-75
2022/10/13 10:46:26;;;;;;;27.13;16.73;;;;;;;16.33;74.66;100765.53;5014266;28;20404;-75
2022/10/13 10:49:00;;;;;;;25.08;17.25;;;;;;;16.27;74.98;100774.81;5029327;28;20735;-74
2022/10/13 10:51:31;;;;;;;24.90;16.70;;;;;;;16.24;75.04;100767.16;5026699;28;20413;-74
2022/10/13 10:54:28;;;;;;;23.40;16.58;;;;;;;16.26;75.25;100766.88;5021155;28;20907;-74
2022/10/13 10:57:12;;;;;;;22.88;16.58;;;;;;;16.34;74.88;100758.13;5014091;28;20454;-74
2022/10/13 11:00:12;;;;;;;25.98;16.77;;;;;;;16.36;74.76;100754.03;5017118;28;20506;-75
2022/10/13 11:03:10;;;;;;;25.35;16.17;;;;;;;16.37;74.59;100757.56;5018104;28;20435;-74
2022/10/13 11:05:57;;;;;;;26.05;16.35;;;;;;;16.42;74.67;100746.63;5015635;28;20417;-75
2022/10/13 11:08:48;;;;;;;26.80;16.03;;;;;;;16.37;74.75;100749.34;5007943;28;20489;-74
2022/10/13 11:11:22;;;;;;;25.83;16.55;;;;;;;16.33;74.70;100745.56;5008880;28;20409;-75
2022/10/13 11:13:53;;;;;;;22.58;16.70;;;;;;;16.25;75.07;100746.91;5009096;28;20404;-75
2022/10/13 11:16:28;;;;;;;28.63;16.60;;;;;;;16.25;75.20;100738.72;5020643;28;20928;-75
2022/10/13 11:18:53;;;;;;;26.65;17.02;;;;;;;16.26;75.38;100736.81;5018654;28;20936;-75
2022/10/13 11:21:18;;;;;;;26.73;16.43;;;;;;;16.28;75.32;100727.22;5002120;28;20528;-74
2022/10/13 11:23:46;;;;;;;23.55;16.35;;;;;;;16.28;75.44;100723.66;5002231;28;20851;-74
2022/10/13 11:26:28;;;;;;;25.25;17.13;;;;;;;16.35;75.33;100716.00;5028608;28;20402;-75